sensor_id;sensor_type;location;lat;lon;timestamp;pressure;altitude;pressure_sealevel;temperature;humidity
34124;BME280;13153;52.316;21.166;2023-04-08T00:01:08;100988.78;;;10.41;52.83
34124;BME280;13153;52.316;21.166;2023-04-08T00:03:33;100998.47;;;10.42;52.69
34124;BME280;13153;52.316;21.166;2023-04-08T00:05:59;100992.56;;;10.48;52.82
34124;BME280;13153;52.316;21.166;2023-04-08T00:08:27;100980.66;;;10.34;52.76
34124;BME280;13153;52.316;21.166;2023-04-08T00:10:53;100984.38;;;10.40;52.61
34124;BME280;13153;52.316;21.166;2023-04-08T00:13:18;100985.44;;;10.45;52.74
34124;BME280;13153;52.316;21.166;2023-04-08T00:15:44;100986.72;;;10.56;52.51
34124;BME280;13153;52.316;21.166;2023-04-08T00:18:12;100994.69;;;10.58;52.74
34124;BME280;13153;52.316;21.166;2023-04-08T00:20:38;100987.22;;;10.46;52.50
34124;BME280;13153;52.316;21.166;2023-04-08T00:23:03;100985.56;;;10.48;52.89
34124;BME280;13153;52.316;21.166;2023-04-08T00:25:30;100983.09;;;10.53;52.72
34124;BME280;13153;52.316;21.166;2023-04-08T00:27:56;100986.84;;;10.59;52.47
34124;BME280;13153;52.316;21.166;2023-04-08T00:30:21;100982.31;;;10.55;52.57
34124;BME280;13153;52.316;21.166;2023-04-08T00:32:47;100987.56;;;10.55;52.45
34124;BME280;13153;52.316;21.166;2023-04-08T00:35:13;100977.16;;;10.58;52.54
34124;BME280;13153;52.316;21.166;2023-04-08T00:37:39;100973.69;;;10.59;52.57
34124;BME280;13153;52.316;21.166;2023-04-08T00:40:06;100983.53;;;10.65;52.85
34124;BME280;13153;52.316;21.166;2023-04-08T00:42:32;100986.78;;;10.58;52.51
34124;BME280;13153;52.316;21.166;2023-04-08T00:44:58;100983.19;;;10.56;52.69
34124;BME280;13153;52.316;21.166;2023-04-08T00:47:24;100989.34;;;10.56;52.59
34124;BME280;13153;52.316;21.166;2023-04-08T00:49:51;100994.41;;;10.50;52.84
34124;BME280;13153;52.316;21.166;2023-04-08T00:52:16;100996.19;;;10.51;53.00
34124;BME280;13153;52.316;21.166;2023-04-08T00:54:42;100992.78;;;10.54;53.11
34124;BME280;13153;52.316;21.166;2023-04-08T00:57:08;101002.28;;;10.50;53.25
34124;BME280;13153;52.316;21.166;2023-04-08T00:59:34;101001.44;;;10.51;52.90
34124;BME280;13153;52.316;21.166;2023-04-08T01:02:32;100997.97;;;10.52;52.87
34124;BME280;13153;52.316;21.166;2023-04-08T01:05:31;101010.25;;;10.52;52.65
34124;BME280;13153;52.316;21.166;2023-04-08T01:08:07;101011.13;;;10.52;52.33
34124;BME280;13153;52.316;21.166;2023-04-08T01:10:37;101008.81;;;10.36;52.37
34124;BME280;13153;52.316;21.166;2023-04-08T01:13:08;101010.31;;;10.30;52.54
34124;BME280;13153;52.316;21.166;2023-04-08T01:15:38;101004.03;;;10.26;52.17
34124;BME280;13153;52.316;21.166;2023-04-08T01:18:12;101008.28;;;10.22;52.25
34124;BME280;13153;52.316;21.166;2023-04-08T01:20:41;101009.69;;;10.14;52.58
34124;BME280;13153;52.316;21.166;2023-04-08T01:23:32;101012.22;;;10.11;53.06
34124;BME280;13153;52.316;21.166;2023-04-08T01:26:01;101017.34;;;10.08;53.02
34124;BME280;13153;52.316;21.166;2023-04-08T01:28:29;101007.59;;;10.06;52.74
34124;BME280;13153;52.316;21.166;2023-04-08T01:30:58;101006.81;;;10.08;52.46
34124;BME280;13153;52.316;21.166;2023-04-08T01:33:27;101008.50;;;10.06;53.17
34124;BME280;13153;52.316;21.166;2023-04-08T01:35:55;101007.59;;;10.06;52.97
34124;BME280;13153;52.316;21.166;2023-04-08T01:38:24;101012.81;;;10.04;52.70
34124;BME280;13153;52.316;21.166;2023-04-08T01:40:53;101028.63;;;10.06;53.28
34124;BME280;13153;52.316;21.166;2023-04-08T01:43:20;101022.38;;;10.02;53.88
34124;BME280;13153;52.316;21.166;2023-04-08T01:45:47;101026.38;;;9.92;53.94
34124;BME280;13153;52.316;21.166;2023-04-08T01:48:14;101031.31;;;9.85;53.75
34124;BME280;13153;52.316;21.166;2023-04-08T01:50:44;101026.69;;;9.78;53.47
34124;BME280;13153;52.316;21.166;2023-04-08T01:53:11;101017.78;;;9.74;53.19
34124;BME280;13153;52.316;21.166;2023-04-08T01:55:42;101025.59;;;9.73;53.08
34124;BME280;13153;52.316;21.166;2023-04-08T01:58:11;101030.81;;;9.71;53.52
34124;BME280;13153;52.316;21.166;2023-04-08T02:00:41;101030.72;;;9.70;53.36
34124;BME280;13153;52.316;21.166;2023-04-08T02:03:11;101026.13;;;9.64;53.98
34124;BME280;13153;52.316;21.166;2023-04-08T02:05:38;101024.97;;;9.57;53.30
34124;BME280;13153;52.316;21.166;2023-04-08T02:08:04;101030.09;;;9.54;54.01
34124;BME280;13153;52.316;21.166;2023-04-08T02:10:30;101037.94;;;9.53;53.97
34124;BME280;13153;52.316;21.166;2023-04-08T02:12:56;101033.44;;;9.50;54.45
34124;BME280;13153;52.316;21.166;2023-04-08T02:15:23;101039.28;;;9.43;54.49
34124;BME280;13153;52.316;21.166;2023-04-08T02:17:59;101036.41;;;9.37;54.69
34124;BME280;13153;52.316;21.166;2023-04-08T02:20:46;101047.66;;;9.35;55.36
34124;BME280;13153;52.316;21.166;2023-04-08T02:23:24;101039.59;;;9.30;56.12
34124;BME280;13153;52.316;21.166;2023-04-08T02:25:54;101041.19;;;9.26;56.15
34124;BME280;13153;52.316;21.166;2023-04-08T02:28:22;101045.47;;;9.24;55.77
34124;BME280;13153;52.316;21.166;2023-04-08T02:30:52;101052.31;;;9.19;56.63
34124;BME280;13153;52.316;21.166;2023-04-08T02:33:21;101052.16;;;9.16;56.37
34124;BME280;13153;52.316;21.166;2023-04-08T02:35:50;101052.88;;;9.12;56.07
34124;BME280;13153;52.316;21.166;2023-04-08T02:38:19;101061.25;;;9.04;56.51
34124;BME280;13153;52.316;21.166;2023-04-08T02:40:45;101060.16;;;8.99;56.76
34124;BME280;13153;52.316;21.166;2023-04-08T02:43:13;101069.53;;;8.93;57.16
34124;BME280;13153;52.316;21.166;2023-04-08T02:45:43;101072.66;;;8.85;57.09
34124;BME280;13153;52.316;21.166;2023-04-08T02:48:09;101076.03;;;8.82;56.65
34124;BME280;13153;52.316;21.166;2023-04-08T02:50:35;101071.56;;;8.80;56.73
34124;BME280;13153;52.316;21.166;2023-04-08T02:53:02;101071.41;;;8.77;56.58
34124;BME280;13153;52.316;21.166;2023-04-08T02:55:28;101080.88;;;8.73;57.21
34124;BME280;13153;52.316;21.166;2023-04-08T02:57:54;101077.97;;;8.67;57.05
34124;BME280;13153;52.316;21.166;2023-04-08T03:00:19;101082.28;;;8.65;57.84
34124;BME280;13153;52.316;21.166;2023-04-08T03:02:45;101079.31;;;8.57;57.13
34124;BME280;13153;52.316;21.166;2023-04-08T03:05:11;101084.28;;;8.51;57.64
34124;BME280;13153;52.316;21.166;2023-04-08T03:07:37;101096.41;;;8.49;57.86
34124;BME280;13153;52.316;21.166;2023-04-08T03:10:05;101097.25;;;8.48;57.60
34124;BME280;13153;52.316;21.166;2023-04-08T03:12:31;101095.31;;;8.44;57.64
34124;BME280;13153;52.316;21.166;2023-04-08T03:14:57;101096.88;;;8.41;57.75
34124;BME280;13153;52.316;21.166;2023-04-08T03:17:23;101094.13;;;8.38;57.75
34124;BME280;13153;52.316;21.166;2023-04-08T03:19:49;101098.31;;;8.34;57.61
34124;BME280;13153;52.316;21.166;2023-04-08T03:22:14;101099.81;;;8.29;57.73
34124;BME280;13153;52.316;21.166;2023-04-08T03:24:40;101095.31;;;8.26;58.04
34124;BME280;13153;52.316;21.166;2023-04-08T03:27:07;101097.72;;;8.22;57.90
34124;BME280;13153;52.316;21.166;2023-04-08T03:29:33;101101.09;;;8.19;57.93
34124;BME280;13153;52.316;21.166;2023-04-08T03:31:58;101101.97;;;8.20;57.84
34124;BME280;13153;52.316;21.166;2023-04-08T03:34:24;101104.53;;;8.18;57.42
34124;BME280;13153;52.316;21.166;2023-04-08T03:36:50;101105.50;;;8.20;57.97
34124;BME280;13153;52.316;21.166;2023-04-08T03:39:16;101103.56;;;8.16;57.58
34124;BME280;13153;52.316;21.166;2023-04-08T03:41:42;101099.16;;;8.15;58.17
34124;BME280;13153;52.316;21.166;2023-04-08T03:44:07;101104.31;;;8.14;58.25
34124;BME280;13153;52.316;21.166;2023-04-08T03:46:33;101101.69;;;8.14;58.50
34124;BME280;13153;52.316;21.166;2023-04-08T03:48:59;101110.38;;;8.13;57.87
34124;BME280;13153;52.316;21.166;2023-04-08T03:51:25;101111.97;;;8.09;57.97
34124;BME280;13153;52.316;21.166;2023-04-08T03:53:51;101109.28;;;8.08;58.66
34124;BME280;13153;52.316;21.166;2023-04-08T03:56:17;101114.53;;;8.08;57.80
34124;BME280;13153;52.316;21.166;2023-04-08T03:58:43;101125.06;;;8.09;58.45
34124;BME280;13153;52.316;21.166;2023-04-08T04:01:08;101123.34;;;8.10;58.11
34124;BME280;13153;52.316;21.166;2023-04-08T04:03:34;101124.31;;;8.12;57.80
34124;BME280;13153;52.316;21.166;2023-04-08T04:06:00;101115.63;;;8.13;57.81
34124;BME280;13153;52.316;21.166;2023-04-08T04:08:26;101127.97;;;8.15;58.34
34124;BME280;13153;52.316;21.166;2023-04-08T04:10:51;101122.06;;;8.19;57.83
34124;BME280;13153;52.316;21.166;2023-04-08T04:13:17;101126.47;;;8.20;57.59
34124;BME280;13153;52.316;21.166;2023-04-08T04:15:44;101134.56;;;8.25;57.33
34124;BME280;13153;52.316;21.166;2023-04-08T04:18:09;101136.44;;;8.27;57.05
34124;BME280;13153;52.316;21.166;2023-04-08T04:20:40;101138.63;;;8.36;57.83
34124;BME280;13153;52.316;21.166;2023-04-08T04:23:07;101140.03;;;8.47;56.51
34124;BME280;13153;52.316;21.166;2023-04-08T04:25:33;101143.16;;;8.58;56.74
34124;BME280;13153;52.316;21.166;2023-04-08T04:27:59;101149.22;;;8.76;56.41
34124;BME280;13153;52.316;21.166;2023-04-08T04:30:26;101158.91;;;8.97;55.66
34124;BME280;13153;52.316;21.166;2023-04-08T04:32:52;101152.75;;;9.15;55.41
34124;BME280;13153;52.316;21.166;2023-04-08T04:35:18;101158.59;;;9.29;54.61
34124;BME280;13153;52.316;21.166;2023-04-08T04:37:43;101159.06;;;9.40;54.78
34124;BME280;13153;52.316;21.166;2023-04-08T04:40:10;101157.25;;;9.58;53.69
34124;BME280;13153;52.316;21.166;2023-04-08T04:42:36;101156.09;;;9.72;54.19
34124;BME280;13153;52.316;21.166;2023-04-08T04:45:02;101156.72;;;9.87;53.20
34124;BME280;13153;52.316;21.166;2023-04-08T04:47:28;101173.25;;;10.06;52.96
34124;BME280;13153;52.316;21.166;2023-04-08T04:49:56;101161.44;;;10.17;52.56
34124;BME280;13153;52.316;21.166;2023-04-08T04:52:22;101168.38;;;10.36;52.30
34124;BME280;13153;52.316;21.166;2023-04-08T04:54:48;101176.19;;;10.56;51.51
34124;BME280;13153;52.316;21.166;2023-04-08T04:57:14;101173.56;;;10.79;51.11
34124;BME280;13153;52.316;21.166;2023-04-08T04:59:40;101177.09;;;11.03;50.35
34124;BME280;13153;52.316;21.166;2023-04-08T05:02:05;101176.69;;;11.16;49.46
34124;BME280;13153;52.316;21.166;2023-04-08T05:04:31;101182.03;;;11.42;49.47
34124;BME280;13153;52.316;21.166;2023-04-08T05:06:58;101176.31;;;11.53;48.91
34124;BME280;13153;52.316;21.166;2023-04-08T05:09:25;101181.53;;;11.77;48.32
34124;BME280;13153;52.316;21.166;2023-04-08T05:11:50;101179.72;;;12.02;48.08
34124;BME280;13153;52.316;21.166;2023-04-08T05:14:16;101176.97;;;12.26;47.15
34124;BME280;13153;52.316;21.166;2023-04-08T05:16:42;101182.50;;;12.33;46.91
34124;BME280;13153;52.316;21.166;2023-04-08T05:19:08;101185.44;;;12.42;46.22
34124;BME280;13153;52.316;21.166;2023-04-08T05:21:33;101189.56;;;12.61;46.14
34124;BME280;13153;52.316;21.166;2023-04-08T05:23:59;101191.09;;;12.83;44.93
34124;BME280;13153;52.316;21.166;2023-04-08T05:26:25;101184.66;;;13.03;45.43
34124;BME280;13153;52.316;21.166;2023-04-08T05:28:51;101196.97;;;13.33;44.44
34124;BME280;13153;52.316;21.166;2023-04-08T05:31:18;101183.63;;;13.60;43.87
34124;BME280;13153;52.316;21.166;2023-04-08T05:33:44;101185.38;;;13.94;43.03
34124;BME280;13153;52.316;21.166;2023-04-08T05:36:11;101184.41;;;14.25;42.82
34124;BME280;13153;52.316;21.166;2023-04-08T05:38:38;101191.34;;;14.56;42.47
34124;BME280;13153;52.316;21.166;2023-04-08T05:41:04;101194.78;;;14.91;41.36
34124;BME280;13153;52.316;21.166;2023-04-08T05:43:32;101196.38;;;15.25;40.34
34124;BME280;13153;52.316;21.166;2023-04-08T05:45:57;101189.72;;;15.45;39.30
34124;BME280;13153;52.316;21.166;2023-04-08T05:48:23;101192.88;;;15.71;39.66
34124;BME280;13153;52.316;21.166;2023-04-08T05:50:49;101195.22;;;16.02;38.66
34124;BME280;13153;52.316;21.166;2023-04-08T05:53:15;101200.56;;;16.04;38.50
34124;BME280;13153;52.316;21.166;2023-04-08T05:55:40;101204.25;;;16.12;38.54
34124;BME280;13153;52.316;21.166;2023-04-08T05:58:06;101206.38;;;16.36;38.14
34124;BME280;13153;52.316;21.166;2023-04-08T06:00:32;101202.94;;;17.02;37.17
34124;BME280;13153;52.316;21.166;2023-04-08T06:02:59;101203.75;;;17.66;36.26
34124;BME280;13153;52.316;21.166;2023-04-08T06:05:25;101200.84;;;18.38;35.09
34124;BME280;13153;52.316;21.166;2023-04-08T06:07:50;101208.34;;;18.94;33.57
34124;BME280;13153;52.316;21.166;2023-04-08T06:10:16;101207.66;;;19.42;33.16
34124;BME280;13153;52.316;21.166;2023-04-08T06:12:42;101214.94;;;19.97;31.88
34124;BME280;13153;52.316;21.166;2023-04-08T06:15:08;101214.03;;;20.28;31.48
34124;BME280;13153;52.316;21.166;2023-04-08T06:17:38;101215.84;;;20.73;31.00
34124;BME280;13153;52.316;21.166;2023-04-08T06:20:07;101214.81;;;21.17;30.06
34124;BME280;13153;52.316;21.166;2023-04-08T06:22:36;101215.59;;;21.43;29.36
34124;BME280;13153;52.316;21.166;2023-04-08T06:25:02;101214.63;;;21.57;28.95
34124;BME280;13153;52.316;21.166;2023-04-08T06:27:28;101215.59;;;21.45;29.45
34124;BME280;13153;52.316;21.166;2023-04-08T06:29:54;101217.16;;;21.87;29.39
34124;BME280;13153;52.316;21.166;2023-04-08T06:32:21;101214.06;;;22.42;28.37
34124;BME280;13153;52.316;21.166;2023-04-08T06:34:48;101213.50;;;23.00;27.44
34124;BME280;13153;52.316;21.166;2023-04-08T06:37:13;101218.75;;;23.11;27.46
34124;BME280;13153;52.316;21.166;2023-04-08T06:39:39;101210.31;;;22.58;27.43
34124;BME280;13153;52.316;21.166;2023-04-08T06:42:06;101216.75;;;22.42;27.75
34124;BME280;13153;52.316;21.166;2023-04-08T06:44:32;101221.34;;;22.26;27.83
34124;BME280;13153;52.316;21.166;2023-04-08T06:46:57;101219.84;;;21.86;28.30
34124;BME280;13153;52.316;21.166;2023-04-08T06:49:23;101216.41;;;21.58;28.21
34124;BME280;13153;52.316;21.166;2023-04-08T06:51:49;101221.91;;;21.35;28.71
34124;BME280;13153;52.316;21.166;2023-04-08T06:54:15;101222.75;;;21.41;28.84
34124;BME280;13153;52.316;21.166;2023-04-08T06:56:41;101228.22;;;21.22;29.03
34124;BME280;13153;52.316;21.166;2023-04-08T06:59:06;101236.28;;;20.94;29.02
34124;BME280;13153;52.316;21.166;2023-04-08T07:01:32;101227.34;;;21.04;29.52
34124;BME280;13153;52.316;21.166;2023-04-08T07:03:58;101229.09;;;21.25;29.26
34124;BME280;13153;52.316;21.166;2023-04-08T07:06:24;101227.16;;;21.55;28.85
34124;BME280;13153;52.316;21.166;2023-04-08T07:08:50;101229.69;;;21.84;28.31
34124;BME280;13153;52.316;21.166;2023-04-08T07:11:15;101234.03;;;21.98;28.17
34124;BME280;13153;52.316;21.166;2023-04-08T07:13:42;101229.63;;;21.91;28.24
34124;BME280;13153;52.316;21.166;2023-04-08T07:16:08;101233.09;;;22.08;28.08
34124;BME280;13153;52.316;21.166;2023-04-08T07:18:34;101231.75;;;22.61;28.29
34124;BME280;13153;52.316;21.166;2023-04-08T07:21:00;101228.00;;;22.78;27.79
34124;BME280;13153;52.316;21.166;2023-04-08T07:23:26;101239.63;;;22.78;27.35
34124;BME280;13153;52.316;21.166;2023-04-08T07:25:52;101243.97;;;22.96;27.54
34124;BME280;13153;52.316;21.166;2023-04-08T07:28:19;101246.56;;;23.03;26.60
34124;BME280;13153;52.316;21.166;2023-04-08T07:30:45;101254.69;;;22.97;26.80
34124;BME280;13153;52.316;21.166;2023-04-08T07:33:11;101255.91;;;22.60;26.89
34124;BME280;13153;52.316;21.166;2023-04-08T07:35:37;101253.25;;;22.57;27.23
34124;BME280;13153;52.316;21.166;2023-04-08T07:38:03;101243.56;;;22.44;28.59
34124;BME280;13153;52.316;21.166;2023-04-08T07:40:29;101247.09;;;22.49;27.47
34124;BME280;13153;52.316;21.166;2023-04-08T07:45:21;101247.66;;;21.62;28.74
34124;BME280;13153;52.316;21.166;2023-04-08T07:47:47;101251.44;;;20.83;29.84
34124;BME280;13153;52.316;21.166;2023-04-08T07:50:13;101249.72;;;20.52;30.55
34124;BME280;13153;52.316;21.166;2023-04-08T07:52:38;101255.03;;;20.36;30.85
34124;BME280;13153;52.316;21.166;2023-04-08T07:55:05;101252.41;;;20.46;30.50
34124;BME280;13153;52.316;21.166;2023-04-08T07:57:31;101243.50;;;20.45;31.17
34124;BME280;13153;52.316;21.166;2023-04-08T07:59:57;101239.91;;;20.20;31.45
34124;BME280;13153;52.316;21.166;2023-04-08T08:02:23;101252.28;;;19.72;31.85
34124;BME280;13153;52.316;21.166;2023-04-08T08:04:49;101238.00;;;19.64;32.03
34124;BME280;13153;52.316;21.166;2023-04-08T08:07:15;101241.56;;;19.59;32.64
34124;BME280;13153;52.316;21.166;2023-04-08T08:09:41;101245.94;;;19.49;32.73
34124;BME280;13153;52.316;21.166;2023-04-08T08:12:06;101235.22;;;19.40;33.16
34124;BME280;13153;52.316;21.166;2023-04-08T08:14:32;101238.88;;;19.56;33.44
34124;BME280;13153;52.316;21.166;2023-04-08T08:16:58;101238.81;;;19.48;33.35
34124;BME280;13153;52.316;21.166;2023-04-08T08:19:23;101240.69;;;19.72;32.91
34124;BME280;13153;52.316;21.166;2023-04-08T08:21:49;101232.72;;;19.84;32.55
34124;BME280;13153;52.316;21.166;2023-04-08T08:24:16;101238.03;;;19.72;32.70
34124;BME280;13153;52.316;21.166;2023-04-08T08:26:42;101228.97;;;19.33;34.11
34124;BME280;13153;52.316;21.166;2023-04-08T08:29:10;101236.91;;;19.15;33.49
34124;BME280;13153;52.316;21.166;2023-04-08T08:31:36;101246.47;;;18.79;34.33
34124;BME280;13153;52.316;21.166;2023-04-08T08:34:01;101242.03;;;18.80;34.49
34124;BME280;13153;52.316;21.166;2023-04-08T08:36:27;101235.91;;;18.92;33.30
34124;BME280;13153;52.316;21.166;2023-04-08T08:38:53;101238.19;;;18.43;34.90
34124;BME280;13153;52.316;21.166;2023-04-08T08:41:20;101230.13;;;18.32;35.08
34124;BME280;13153;52.316;21.166;2023-04-08T08:43:46;101228.34;;;18.33;35.01
34124;BME280;13153;52.316;21.166;2023-04-08T08:46:16;101233.78;;;18.46;34.95
34124;BME280;13153;52.316;21.166;2023-04-08T08:48:43;101227.72;;;18.64;34.36
34124;BME280;13153;52.316;21.166;2023-04-08T08:51:11;101226.72;;;18.56;34.17
34124;BME280;13153;52.316;21.166;2023-04-08T08:53:37;101234.00;;;18.74;33.82
34124;BME280;13153;52.316;21.166;2023-04-08T08:56:07;101235.72;;;18.66;34.18
34124;BME280;13153;52.316;21.166;2023-04-08T08:58:33;101237.56;;;18.76;34.35
34124;BME280;13153;52.316;21.166;2023-04-08T09:00:59;101233.97;;;18.68;34.66
34124;BME280;13153;52.316;21.166;2023-04-08T09:03:27;101229.38;;;18.56;35.00
34124;BME280;13153;52.316;21.166;2023-04-08T09:08:34;101228.06;;;18.02;35.79
34124;BME280;13153;52.316;21.166;2023-04-08T09:11:17;101230.84;;;18.16;35.98
34124;BME280;13153;52.316;21.166;2023-04-08T09:13:44;101229.19;;;18.27;36.33
34124;BME280;13153;52.316;21.166;2023-04-08T09:16:16;101233.53;;;18.19;36.29
34124;BME280;13153;52.316;21.166;2023-04-08T09:18:46;101237.13;;;18.23;36.51
34124;BME280;13153;52.316;21.166;2023-04-08T09:21:15;101235.28;;;18.14;35.24
34124;BME280;13153;52.316;21.166;2023-04-08T09:23:45;101240.50;;;18.05;35.46
34124;BME280;13153;52.316;21.166;2023-04-08T09:26:14;101233.28;;;17.90;36.11
34124;BME280;13153;52.316;21.166;2023-04-08T09:28:42;101239.56;;;17.98;35.91
34124;BME280;13153;52.316;21.166;2023-04-08T09:31:23;101242.44;;;18.20;36.75
34124;BME280;13153;52.316;21.166;2023-04-08T09:33:53;101241.78;;;18.48;36.07
34124;BME280;13153;52.316;21.166;2023-04-08T09:36:19;101243.59;;;18.55;35.67
34124;BME280;13153;52.316;21.166;2023-04-08T09:38:45;101245.31;;;18.44;34.87
34124;BME280;13153;52.316;21.166;2023-04-08T09:41:18;101235.28;;;18.14;35.52
34124;BME280;13153;52.316;21.166;2023-04-08T09:43:54;101241.25;;;17.92;36.78
34124;BME280;13153;52.316;21.166;2023-04-08T09:46:44;101233.47;;;18.11;35.69
34124;BME280;13153;52.316;21.166;2023-04-08T09:49:45;101230.00;;;18.20;35.67
34124;BME280;13153;52.316;21.166;2023-04-08T09:52:29;101238.16;;;18.37;35.32
34124;BME280;13153;52.316;21.166;2023-04-08T09:55:04;101234.66;;;18.45;36.28
34124;BME280;13153;52.316;21.166;2023-04-08T09:57:40;101233.78;;;18.46;35.27
34124;BME280;13153;52.316;21.166;2023-04-08T10:00:13;101232.03;;;18.52;35.82
34124;BME280;13153;52.316;21.166;2023-04-08T10:03:01;101225.78;;;18.43;35.29
34124;BME280;13153;52.316;21.166;2023-04-08T10:05:32;101230.06;;;18.28;36.05
34124;BME280;13153;52.316;21.166;2023-04-08T10:08:00;101223.81;;;18.24;36.13
34124;BME280;13153;52.316;21.166;2023-04-08T10:10:26;101227.28;;;18.14;35.79
34124;BME280;13153;52.316;21.166;2023-04-08T10:12:52;101222.88;;;18.18;36.43
34124;BME280;13153;52.316;21.166;2023-04-08T10:15:30;101222.88;;;18.19;36.26
34124;BME280;13153;52.316;21.166;2023-04-08T10:20:48;101214.16;;;18.35;37.17
34124;BME280;13153;52.316;21.166;2023-04-08T10:23:16;101215.81;;;18.23;36.81
34124;BME280;13153;52.316;21.166;2023-04-08T10:25:43;101219.00;;;17.82;37.40
34124;BME280;13153;52.316;21.166;2023-04-08T10:30:50;101213.81;;;17.97;37.38
34124;BME280;13153;52.316;21.166;2023-04-08T10:36:07;101212.88;;;17.89;36.81
34124;BME280;13153;52.316;21.166;2023-04-08T10:38:38;101224.09;;;17.64;37.14
34124;BME280;13153;52.316;21.166;2023-04-08T10:41:04;101213.53;;;17.68;36.83
34124;BME280;13153;52.316;21.166;2023-04-08T10:43:33;101220.81;;;17.86;37.14
34124;BME280;13153;52.316;21.166;2023-04-08T10:46:00;101214.78;;;18.05;37.11
34124;BME280;13153;52.316;21.166;2023-04-08T10:48:26;101205.84;;;18.00;36.79
34124;BME280;13153;52.316;21.166;2023-04-08T10:51:05;101215.66;;;18.04;36.90
34124;BME280;13153;52.316;21.166;2023-04-08T10:53:36;101209.59;;;18.22;36.76
34124;BME280;13153;52.316;21.166;2023-04-08T10:56:13;101207.00;;;18.30;36.06
34124;BME280;13153;52.316;21.166;2023-04-08T10:58:54;101208.66;;;18.17;35.59
34124;BME280;13153;52.316;21.166;2023-04-08T11:01:21;101202.06;;;17.74;35.69
34124;BME280;13153;52.316;21.166;2023-04-08T11:03:48;101209.00;;;17.64;36.24
34124;BME280;13153;52.316;21.166;2023-04-08T11:06:15;101207.16;;;17.57;36.27
34124;BME280;13153;52.316;21.166;2023-04-08T11:08:45;101202.00;;;17.68;37.23
34124;BME280;13153;52.316;21.166;2023-04-08T11:11:11;101196.78;;;17.77;36.66
34124;BME280;13153;52.316;21.166;2023-04-08T11:13:44;101194.09;;;17.75;36.18
34124;BME280;13153;52.316;21.166;2023-04-08T11:16:11;101202.88;;;17.67;35.85
34124;BME280;13153;52.316;21.166;2023-04-08T11:18:38;101193.84;;;17.56;35.46
34124;BME280;13153;52.316;21.166;2023-04-08T11:21:14;101195.63;;;17.58;35.93
34124;BME280;13153;52.316;21.166;2023-04-08T11:23:41;101188.50;;;17.56;35.70
34124;BME280;13153;52.316;21.166;2023-04-08T11:26:07;101194.19;;;17.10;36.23
34124;BME280;13153;52.316;21.166;2023-04-08T11:28:34;101189.75;;;17.08;36.69
34124;BME280;13153;52.316;21.166;2023-04-08T11:31:02;101193.38;;;17.14;35.98
34124;BME280;13153;52.316;21.166;2023-04-08T11:33:33;101192.47;;;17.14;35.96
34124;BME280;13153;52.316;21.166;2023-04-08T11:36:01;101188.13;;;17.21;36.77
34124;BME280;13153;52.316;21.166;2023-04-08T11:38:30;101186.09;;;17.01;36.94
34124;BME280;13153;52.316;21.166;2023-04-08T11:40:58;101187.09;;;17.09;36.48
34124;BME280;13153;52.316;21.166;2023-04-08T11:43:25;101181.69;;;17.03;35.77
34124;BME280;13153;52.316;21.166;2023-04-08T11:45:51;101187.28;;;17.25;35.99
34124;BME280;13153;52.316;21.166;2023-04-08T11:48:17;101179.31;;;17.25;36.20
34124;BME280;13153;52.316;21.166;2023-04-08T11:50:43;101167.78;;;17.26;35.43
34124;BME280;13153;52.316;21.166;2023-04-08T11:53:21;101176.00;;;17.48;35.08
34124;BME280;13153;52.316;21.166;2023-04-08T11:55:49;101170.97;;;17.70;35.91
34124;BME280;13153;52.316;21.166;2023-04-08T11:58:15;101168.44;;;17.84;34.80
34124;BME280;13153;52.316;21.166;2023-04-08T12:00:41;101164.75;;;17.71;34.95
34124;BME280;13153;52.316;21.166;2023-04-08T12:03:08;101170.88;;;17.64;35.46
34124;BME280;13153;52.316;21.166;2023-04-08T12:05:35;101171.06;;;17.79;35.05
34124;BME280;13153;52.316;21.166;2023-04-08T12:08:01;101163.94;;;17.78;34.77
34124;BME280;13153;52.316;21.166;2023-04-08T12:10:28;101161.34;;;17.86;34.54
34124;BME280;13153;52.316;21.166;2023-04-08T12:12:53;101159.53;;;17.81;34.39
34124;BME280;13153;52.316;21.166;2023-04-08T12:15:19;101158.75;;;17.96;34.85
34124;BME280;13153;52.316;21.166;2023-04-08T12:17:45;101160.63;;;18.06;35.77
34124;BME280;13153;52.316;21.166;2023-04-08T12:20:12;101158.91;;;18.14;36.20
34124;BME280;13153;52.316;21.166;2023-04-08T12:22:38;101157.09;;;18.09;36.19
34124;BME280;13153;52.316;21.166;2023-04-08T12:25:05;101152.50;;;17.87;35.73
34124;BME280;13153;52.316;21.166;2023-04-08T12:27:31;101147.03;;;17.74;35.52
34124;BME280;13153;52.316;21.166;2023-04-08T12:30:01;101154.06;;;17.68;35.29
34124;BME280;13153;52.316;21.166;2023-04-08T12:32:28;101149.53;;;17.59;35.76
34124;BME280;13153;52.316;21.166;2023-04-08T12:34:54;101147.88;;;17.69;35.21
34124;BME280;13153;52.316;21.166;2023-04-08T12:37:20;101147.09;;;17.80;35.18
34124;BME280;13153;52.316;21.166;2023-04-08T12:39:46;101146.34;;;17.97;35.62
34124;BME280;13153;52.316;21.166;2023-04-08T12:42:13;101133.94;;;18.02;34.92
34124;BME280;13153;52.316;21.166;2023-04-08T12:44:39;101134.00;;;18.09;35.26
34124;BME280;13153;52.316;21.166;2023-04-08T12:47:05;101132.19;;;18.04;35.52
34124;BME280;13153;52.316;21.166;2023-04-08T12:49:31;101132.41;;;18.30;35.54
34124;BME280;13153;52.316;21.166;2023-04-08T12:51:57;101131.59;;;18.43;34.90
34124;BME280;13153;52.316;21.166;2023-04-08T12:54:22;101124.63;;;18.62;35.00
34124;BME280;13153;52.316;21.166;2023-04-08T12:56:48;101126.34;;;18.60;34.03
34124;BME280;13153;52.316;21.166;2023-04-08T12:59:14;101124.63;;;18.63;34.15